Time,TemperatureF,DewpointF,PressureIn,WindDirection,WindDirectionDegrees,WindSpeedMPH,WindSpeedGustMPH,Humidity,HourlyPrecipIn,Conditions,Clouds,dailyrainin,SoftwareType,DateUTC
2013-03-18 00:02:00,36.0,34.0,30.15,SE,144,0.0,4.0,93,0.00,,,0.10,,2013-03-18 07:02:00,
2013-03-18 00:12:00,36.0,34.0,30.15,SE,144,0.0,4.0,93,0.00,,,0.10,,2013-03-18 07:12:00,
2013-03-18 00:22:00,36.0,34.0,30.15,East,87,0.0,4.0,93,0.00,,,0.10,,2013-03-18 07:22:00,
2013-03-18 00:32:00,36.0,34.0,30.15,East,87,0.0,2.0,94,0.00,,,0.10,,2013-03-18 07:32:00,
2013-03-18 00:42:00,36.0,34.0,30.15,East,87,0.0,2.0,94,0.00,,,0.10,,2013-03-18 07:42:00,
2013-03-18 00:52:00,36.0,34.0,30.15,SSE,168,0.0,2.0,94,0.00,,,0.10,,2013-03-18 07:52:00,
2013-03-18 01:02:00,36.0,34.0,30.15,SE,132,1.0,5.0,94,0.00,,,0.10,,2013-03-18 08:02:00,
2013-03-18 01:11:00,36.0,34.0,30.15,SE,132,1.0,5.0,94,0.00,,,0.10,,2013-03-18 08:11:00,
2013-03-18 01:21:00,37.0,35.0,30.14,ESE,112,2.0,5.0,93,0.00,,,0.10,,2013-03-18 08:21:00,
2013-03-18 01:32:00,37.0,35.0,30.14,ESE,120,1.0,8.0,92,0.00,,,0.10,,2013-03-18 08:32:00,
2013-03-18 01:42:00,37.0,35.0,30.14,ESE,120,1.0,8.0,92,0.00,,,0.10,,2013-03-18 08:42:00,
2013-03-18 01:52:00,37.0,35.0,30.14,ESE,121,3.0,7.0,92,0.00,,,0.10,,2013-03-18 08:52:00,
2013-03-18 02:02:00,37.0,35.0,30.13,SSE,161,2.0,8.0,92,0.00,,,0.10,,2013-03-18 09:02:00,
2013-03-18 02:11:00,37.0,35.0,30.13,SSE,161,2.0,8.0,92,0.00,,,0.10,,2013-03-18 09:11:00,
2013-03-18 02:22:00,37.0,35.0,30.13,SSE,148,2.0,6.0,92,0.00,,,0.10,,2013-03-18 09:22:00,
2013-03-18 02:32:00,37.0,35.0,30.12,SE,140,6.0,10.0,91,0.00,,,0.09,,2013-03-18 09:32:00,
2013-03-18 02:42:00,37.0,35.0,30.12,SE,140,6.0,10.0,91,0.00,,,0.09,,2013-03-18 09:42:00,
2013-03-18 02:53:00,38.0,36.0,30.11,SSE,159,4.0,9.0,91,0.00,,,0.09,,2013-03-18 09:53:00,
2013-03-18 03:03:00,38.0,35.0,30.11,ESE,108,5.0,13.0,90,0.00,,,0.09,,2013-03-18 10:03:00,
2013-03-18 03:12:00,38.0,35.0,30.11,ESE,108,5.0,13.0,90,0.00,,,0.09,,2013-03-18 10:12:00,
2013-03-18 03:23:00,38.0,35.0,30.11,NNE,22,3.0,11.0,89,0.00,,,0.09,,2013-03-18 10:23:00,
2013-03-18 03:33:00,38.0,35.0,30.11,SE,140,3.0,6.0,89,0.00,,,0.09,,2013-03-18 10:33:00,
2013-03-18 03:42:00,38.0,35.0,30.11,SE,140,3.0,6.0,89,0.00,,,0.09,,2013-03-18 10:42:00,
2013-03-18 03:52:00,38.0,35.0,30.10,SSE,158,4.0,10.0,89,0.00,,,0.09,,2013-03-18 10:52:00,
2013-03-18 04:03:00,38.0,35.0,30.09,SSE,154,3.0,8.0,89,0.00,,,0.09,,2013-03-18 11:03:00,
2013-03-18 04:12:00,38.0,35.0,30.09,SSE,154,3.0,8.0,89,0.00,,,0.09,,2013-03-18 11:12:00,
2013-03-18 04:22:00,38.0,35.0,30.09,SSE,166,4.0,10.0,88,0.00,,,0.09,,2013-03-18 11:22:00,
2013-03-18 04:31:00,39.0,36.0,30.09,SSE,156,4.0,11.0,88,0.00,,,0.09,,2013-03-18 11:31:00,
2013-03-18 04:42:00,39.0,36.0,30.09,SSE,156,4.0,11.0,88,0.00,,,0.09,,2013-03-18 11:42:00,
2013-03-18 04:52:00,39.0,36.0,30.09,SE,140,3.0,12.0,88,0.00,,,0.09,,2013-03-18 11:52:00,
2013-03-18 05:02:00,39.0,35.0,30.08,East,84,4.0,10.0,87,0.00,,,0.09,,2013-03-18 12:02:00,
2013-03-18 05:12:00,39.0,35.0,30.08,East,84,4.0,10.0,87,0.00,,,0.09,,2013-03-18 12:12:00,
2013-03-18 05:22:00,39.0,35.0,30.08,South,172,2.0,11.0,87,0.00,,,0.09,,2013-03-18 12:22:00,
2013-03-18 05:32:00,39.0,35.0,30.09,ESE,111,3.0,9.0,87,0.00,,,0.09,,2013-03-18 12:32:00,
2013-03-18 05:42:00,39.0,35.0,30.09,ESE,111,3.0,9.0,87,0.00,,,0.09,,2013-03-18 12:42:00,
2013-03-18 05:51:00,39.0,35.0,30.09,East,100,2.0,6.0,86,0.00,,,0.09,,2013-03-18 12:51:00,
2013-03-18 06:02:00,39.0,35.0,30.09,ENE,67,0.0,4.0,87,0.00,,,0.09,,2013-03-18 13:02:00,
2013-03-18 06:11:00,39.0,35.0,30.09,ENE,67,0.0,4.0,87,0.00,,,0.09,,2013-03-18 13:11:00,
2013-03-18 06:22:00,39.0,35.0,30.09,ESE,117,0.0,3.0,87,0.00,,,0.09,,2013-03-18 13:22:00,
2013-03-18 06:32:00,39.0,35.0,30.10,SSE,147,1.0,4.0,87,0.00,,,0.09,,2013-03-18 13:32:00,
2013-03-18 06:42:00,39.0,35.0,30.10,SSE,147,1.0,4.0,87,0.00,,,0.09,,2013-03-18 13:42:00,
2013-03-18 06:52:00,39.0,36.0,30.11,SSE,150,1.0,6.0,88,0.00,,,0.09,,2013-03-18 13:52:00,
2013-03-18 07:02:00,40.0,37.0,30.11,South,173,4.0,11.0,88,0.01,,,0.10,,2013-03-18 14:02:00,
2013-03-18 07:11:00,40.0,37.0,30.11,South,173,4.0,11.0,88,0.01,,,0.10,,2013-03-18 14:11:00,
2013-03-18 07:22:00,40.0,37.0,30.11,WSW,240,4.0,7.0,89,0.02,,,0.11,,2013-03-18 14:22:00,
2013-03-18 07:32:00,40.0,37.0,30.11,SSW,192,2.0,6.0,89,0.02,,,0.11,,2013-03-18 14:32:00,
2013-03-18 07:42:00,40.0,37.0,30.11,SSW,192,2.0,6.0,89,0.02,,,0.11,,2013-03-18 14:42:00,
2013-03-18 07:51:00,40.0,37.0,30.11,SSW,192,2.0,6.0,89,0.02,,,0.11,,2013-03-18 14:51:00,
2013-03-18 08:02:00,40.0,38.0,30.12,SSW,213,2.0,6.0,91,0.02,,,0.12,,2013-03-18 15:02:00,
2013-03-18 08:12:00,40.0,38.0,30.12,SSW,213,2.0,6.0,91,0.02,,,0.12,,2013-03-18 15:12:00,
2013-03-18 08:22:00,40.0,38.0,30.12,SSE,165,0.0,3.0,91,0.02,,,0.13,,2013-03-18 15:22:00,
2013-03-18 08:33:00,39.0,37.0,30.12,SE,140,1.0,5.0,92,0.02,,,0.14,,2013-03-18 15:33:00,
2013-03-18 08:42:00,39.0,37.0,30.12,SE,140,1.0,5.0,92,0.02,,,0.14,,2013-03-18 15:42:00,
2013-03-18 08:52:00,39.0,37.0,30.13,SSW,198,0.0,4.0,92,0.03,,,0.15,,2013-03-18 15:52:00,
2013-03-18 09:02:00,39.0,37.0,30.13,SSE,154,0.0,4.0,93,0.03,,,0.15,,2013-03-18 16:02:00,
2013-03-18 09:12:00,39.0,37.0,30.13,SSE,154,0.0,4.0,93,0.03,,,0.15,,2013-03-18 16:12:00,
2013-03-18 09:22:00,39.0,37.0,30.14,SSE,154,0.0,2.0,93,0.04,,,0.17,,2013-03-18 16:22:00,
2013-03-18 09:32:00,40.0,38.0,30.13,SSE,156,2.0,6.0,93,0.03,,,0.17,,2013-03-18 16:32:00,
2013-03-18 09:42:00,40.0,38.0,30.13,SSE,156,2.0,6.0,93,0.03,,,0.17,,2013-03-18 16:42:00,
2013-03-18 09:52:00,40.0,38.0,30.14,SE,129,2.0,5.0,93,0.03,,,0.18,,2013-03-18 16:52:00,
2013-03-18 10:02:00,40.0,38.0,30.14,South,171,0.0,4.0,92,0.03,,,0.18,,2013-03-18 17:02:00,
2013-03-18 10:11:00,40.0,38.0,30.14,South,171,0.0,4.0,92,0.03,,,0.18,,2013-03-18 17:11:00,
2013-03-18 10:22:00,43.0,41.0,30.14,South,178,1.0,4.0,93,0.01,,,0.18,,2013-03-18 17:22:00,
2013-03-18 10:32:00,45.0,42.0,30.15,South,190,0.0,3.0,88,0.01,,,0.18,,2013-03-18 17:32:00,
2013-03-18 10:42:00,45.0,42.0,30.15,South,190,0.0,3.0,88,0.01,,,0.18,,2013-03-18 17:42:00,
2013-03-18 10:52:00,46.0,41.0,30.15,East,84,2.0,7.0,83,0.00,,,0.18,,2013-03-18 17:52:00,
2013-03-18 11:02:00,45.0,41.0,30.15,SSW,210,0.0,5.0,86,0.00,,,0.18,,2013-03-18 18:02:00,
2013-03-18 11:12:00,45.0,41.0,30.15,SSW,210,0.0,5.0,86,0.00,,,0.18,,2013-03-18 18:12:00,
2013-03-18 11:22:00,47.0,41.0,30.15,SW,229,3.0,7.0,80,0.00,,,0.18,,2013-03-18 18:22:00,
2013-03-18 11:32:00,48.0,39.0,30.16,NW,325,2.0,7.0,70,0.00,,,0.18,,2013-03-18 18:32:00,
2013-03-18 11:42:00,48.0,39.0,30.16,NW,325,2.0,7.0,70,0.00,,,0.18,,2013-03-18 18:42:00,
2013-03-18 11:52:00,48.0,40.0,30.16,NNW,344,3.0,10.0,74,0.00,,,0.18,,2013-03-18 18:52:00,
2013-03-18 12:02:00,50.0,40.0,30.16,SW,215,4.0,10.0,68,0.00,,,0.18,,2013-03-18 19:02:00,
2013-03-18 12:11:00,50.0,40.0,30.16,SW,215,4.0,10.0,68,0.00,,,0.18,,2013-03-18 19:11:00,
2013-03-18 12:22:00,52.0,39.0,30.16,NW,306,7.0,17.0,60,0.00,,,0.18,,2013-03-18 19:22:00,
2013-03-18 12:32:00,53.0,39.0,30.16,West,279,5.0,11.0,58,0.00,,,0.18,,2013-03-18 19:32:00,
2013-03-18 12:52:00,53.0,37.0,30.16,SSW,204,3.0,8.0,55,0.00,,,0.18,,2013-03-18 19:52:00,
2013-03-18 13:02:00,52.0,38.0,30.17,WNW,303,3.0,10.0,58,0.00,,,0.18,,2013-03-18 20:02:00,
2013-03-18 13:11:00,52.0,38.0,30.17,WNW,303,3.0,10.0,58,0.00,,,0.18,,2013-03-18 20:11:00,
2013-03-18 13:22:00,49.0,35.0,30.17,NW,326,4.0,11.0,59,0.00,,,0.18,,2013-03-18 20:22:00,
2013-03-18 13:32:00,47.0,34.0,30.17,WNW,291,6.0,15.0,61,0.00,,,0.18,,2013-03-18 20:32:00,
2013-03-18 13:42:00,47.0,34.0,30.17,WNW,291,6.0,15.0,61,0.00,,,0.18,,2013-03-18 20:42:00,
2013-03-18 13:52:00,49.0,36.0,30.18,NW,307,5.0,11.0,61,0.00,,,0.18,,2013-03-18 20:52:00,
2013-03-18 14:02:00,49.0,36.0,30.18,West,280,4.0,14.0,60,0.00,,,0.18,,2013-03-18 21:02:00,
2013-03-18 14:11:00,49.0,36.0,30.18,West,280,4.0,14.0,60,0.00,,,0.18,,2013-03-18 21:11:00,
2013-03-18 14:22:00,48.0,36.0,30.19,West,281,5.0,11.0,63,0.00,,,0.18,,2013-03-18 21:22:00,
2013-03-18 14:32:00,49.0,35.0,30.19,NW,322,8.0,17.0,59,0.00,,,0.18,,2013-03-18 21:32:00,
2013-03-18 14:42:00,49.0,35.0,30.19,NW,322,8.0,17.0,59,0.00,,,0.18,,2013-03-18 21:42:00,
2013-03-18 14:52:00,51.0,34.0,30.18,WNW,300,6.0,13.0,53,0.00,,,0.18,,2013-03-18 21:52:00,
2013-03-18 15:03:00,51.0,35.0,30.18,NW,317,6.0,14.0,55,0.00,,,0.18,,2013-03-18 22:03:00,
2013-03-18 15:12:00,51.0,35.0,30.18,NW,317,6.0,14.0,55,0.00,,,0.18,,2013-03-18 22:12:00,
2013-03-18 15:22:00,51.0,35.0,30.18,NW,317,6.0,14.0,55,0.00,,,0.18,,2013-03-18 22:22:00,
2013-03-18 15:32:00,49.0,32.0,30.19,NW,320,7.0,12.0,51,0.00,,,0.17,,2013-03-18 22:32:00,
2013-03-18 15:42:00,49.0,32.0,30.19,NW,320,7.0,12.0,51,0.00,,,0.17,,2013-03-18 22:42:00,
2013-03-18 15:52:00,50.0,33.0,30.19,NW,307,6.0,13.0,51,0.00,,,0.17,,2013-03-18 22:52:00,
2013-03-18 16:02:00,51.0,32.0,30.19,WNW,296,7.0,14.0,48,0.00,,,0.17,,2013-03-18 23:02:00,
2013-03-18 16:12:00,51.0,32.0,30.19,WNW,296,7.0,14.0,48,0.00,,,0.17,,2013-03-18 23:12:00,
2013-03-18 16:22:00,51.0,32.0,30.19,NW,317,7.0,14.0,48,0.00,,,0.17,,2013-03-18 23:22:00,
2013-03-18 16:32:00,50.0,32.0,30.19,NW,313,6.0,11.0,50,0.00,,,0.17,,2013-03-18 23:32:00,
2013-03-18 16:42:00,50.0,32.0,30.19,NW,313,6.0,11.0,50,0.00,,,0.17,,2013-03-18 23:42:00,
2013-03-18 16:52:00,51.0,34.0,30.20,NW,312,4.0,12.0,52,0.00,,,0.17,,2013-03-18 23:52:00,
2013-03-18 17:02:00,49.0,33.0,30.20,WNW,302,6.0,13.0,53,0.00,,,0.17,,2013-03-19 00:02:00,
2013-03-18 17:22:00,48.0,34.0,30.20,NW,317,4.0,12.0,58,0.00,,,0.17,,2013-03-19 00:22:00,
2013-03-18 17:32:00,50.0,35.0,30.20,North,360,6.0,13.0,56,0.00,,,0.17,,2013-03-19 00:32:00,
2013-03-18 17:42:00,50.0,35.0,30.20,North,360,6.0,13.0,56,0.00,,,0.17,,2013-03-19 00:42:00,
2013-03-18 17:52:00,50.0,37.0,30.19,WNW,296,4.0,7.0,60,0.00,,,0.17,,2013-03-19 00:52:00,
2013-03-18 18:02:00,50.0,35.0,30.20,WNW,286,3.0,8.0,57,0.00,,,0.17,,2013-03-19 01:02:00,
2013-03-18 18:11:00,50.0,35.0,30.20,WNW,286,3.0,8.0,57,0.00,,,0.17,,2013-03-19 01:11:00,
2013-03-18 18:21:00,49.0,35.0,30.20,NW,315,3.0,9.0,59,0.00,,,0.17,,2013-03-19 01:21:00,
2013-03-18 18:32:00,49.0,35.0,30.20,NW,315,3.0,9.0,59,0.00,,,0.17,,2013-03-19 01:32:00,
2013-03-18 18:42:00,49.0,35.0,30.20,NW,315,3.0,9.0,59,0.00,,,0.17,,2013-03-19 01:42:00,
2013-03-18 18:52:00,47.0,34.0,30.20,NW,311,3.0,9.0,61,0.00,,,0.17,,2013-03-19 01:52:00,
2013-03-18 19:02:00,47.0,35.0,30.20,WNW,286,2.0,5.0,64,0.00,,,0.17,,2013-03-19 02:02:00,
2013-03-18 19:12:00,47.0,35.0,30.20,WNW,286,2.0,5.0,64,0.00,,,0.17,,2013-03-19 02:12:00,
2013-03-18 19:22:00,46.0,35.0,30.20,West,277,4.0,6.0,64,0.00,,,0.17,,2013-03-19 02:22:00,
2013-03-18 19:32:00,45.0,34.0,30.20,NNW,335,0.0,5.0,65,0.00,,,0.17,,2013-03-19 02:32:00,
2013-03-18 19:42:00,45.0,34.0,30.20,NNW,335,0.0,5.0,65,0.00,,,0.17,,2013-03-19 02:42:00,
2013-03-18 19:52:00,45.0,34.0,30.20,NW,319,1.0,4.0,65,0.00,,,0.17,,2013-03-19 02:52:00,
2013-03-18 20:02:00,44.0,34.0,30.20,WNW,300,0.0,3.0,67,0.00,,,0.17,,2013-03-19 03:02:00,
2013-03-18 20:11:00,44.0,34.0,30.20,WNW,300,0.0,3.0,67,0.00,,,0.17,,2013-03-19 03:11:00,
2013-03-18 20:21:00,44.0,35.0,30.21,WNW,300,0.0,0.0,71,0.00,,,0.17,,2013-03-19 03:21:00,
2013-03-18 20:32:00,44.0,35.0,30.21,WNW,300,0.0,0.0,71,0.00,,,0.17,,2013-03-19 03:32:00,
2013-03-18 20:42:00,44.0,35.0,30.21,WNW,300,0.0,0.0,71,0.00,,,0.17,,2013-03-19 03:42:00,
2013-03-18 20:53:00,42.0,35.0,30.21,WNW,300,0.0,1.0,76,0.00,,,0.16,,2013-03-19 03:53:00,
2013-03-18 21:03:00,41.0,35.0,30.21,WNW,300,0.0,0.0,78,0.00,,,0.16,,2013-03-19 04:03:00,
2013-03-18 21:13:00,41.0,35.0,30.21,WNW,300,0.0,0.0,78,0.00,,,0.16,,2013-03-19 04:13:00,
2013-03-18 21:22:00,40.0,34.0,30.21,WNW,300,0.0,2.0,80,0.00,,,0.16,,2013-03-19 04:22:00,
2013-03-18 21:33:00,39.0,33.0,30.21,NW,310,0.0,2.0,79,0.00,,,0.15,,2013-03-19 04:33:00,
2013-03-18 21:42:00,39.0,33.0,30.21,NW,310,0.0,2.0,79,0.00,,,0.15,,2013-03-19 04:42:00,
2013-03-18 21:52:00,38.0,32.0,30.21,NW,310,0.0,0.0,80,0.00,,,0.15,,2013-03-19 04:52:00,
2013-03-18 22:02:00,37.0,32.0,30.22,NW,310,0.0,0.0,83,0.00,,,0.15,,2013-03-19 05:02:00,
2013-03-18 22:11:00,37.0,32.0,30.22,NW,310,0.0,0.0,83,0.00,,,0.15,,2013-03-19 05:11:00,
2013-03-18 22:22:00,36.0,32.0,30.21,NW,310,0.0,0.0,85,0.00,,,0.15,,2013-03-19 05:22:00,
2013-03-18 22:32:00,36.0,33.0,30.21,NW,310,0.0,0.0,87,0.00,,,0.10,,2013-03-19 05:32:00,
2013-03-18 22:42:00,36.0,33.0,30.21,NW,310,0.0,0.0,87,0.00,,,0.10,,2013-03-19 05:42:00,
2013-03-18 22:52:00,35.0,32.0,30.21,NW,310,0.0,0.0,87,0.00,,,0.10,,2013-03-19 05:52:00,
2013-03-18 23:02:00,34.0,31.0,30.21,NW,310,0.0,0.0,89,0.00,,,0.10,,2013-03-19 06:02:00,
2013-03-18 23:12:00,34.0,31.0,30.21,NW,310,0.0,0.0,89,0.00,,,0.10,,2013-03-19 06:12:00,
2013-03-18 23:21:00,34.0,31.0,30.22,NW,310,0.0,1.0,90,0.00,,,0.10,,2013-03-19 06:21:00,
2013-03-18 23:32:00,33.0,31.0,30.22,NW,310,0.0,1.0,91,0.00,,,0.09,,2013-03-19 06:32:00,
2013-03-18 23:42:00,33.0,31.0,30.22,NW,310,0.0,1.0,91,0.00,,,0.09,,2013-03-19 06:42:00,
2013-03-18 23:52:00,34.0,32.0,30.22,NW,310,0.0,0.0,92,0.00,,,0.09,,2013-03-19 06:52:00,